createdAt,value
2023-04-07T00:01:52.273Z,6.50
2023-04-07T00:04:19.497Z,6.03
2023-04-07T00:06:46.497Z,6.40
2023-04-07T00:09:13.284Z,6.10
2023-04-07T00:11:40.004Z,6.47
2023-04-07T00:14:06.755Z,6.17
2023-04-07T00:16:33.436Z,6.37
2023-04-07T00:19:00.149Z,6.40
2023-04-07T00:21:27.246Z,6.93
2023-04-07T00:23:57.227Z,6.50
2023-04-07T00:26:25.788Z,7.07
2023-04-07T00:28:52.530Z,6.37
2023-04-07T00:31:19.259Z,6.47
2023-04-07T00:33:46.029Z,6.07
2023-04-07T00:36:12.707Z,7.03
2023-04-07T00:38:39.652Z,7.23
2023-04-07T00:41:06.329Z,7.00
2023-04-07T00:43:33.118Z,6.63
2023-04-07T00:45:59.905Z,6.70
2023-04-07T00:48:27.346Z,6.60
2023-04-07T00:50:54.160Z,6.60
2023-04-07T00:53:21.141Z,6.90
2023-04-07T00:55:47.945Z,6.63
2023-04-07T00:58:14.599Z,6.50
2023-04-07T01:00:58.780Z,6.30
2023-04-07T01:03:32.682Z,6.07
2023-04-07T01:06:03.182Z,6.87
2023-04-07T01:08:52.425Z,5.80
2023-04-07T01:11:30.065Z,6.00
2023-04-07T01:13:58.219Z,6.60
2023-04-07T01:16:37.148Z,6.70
2023-04-07T01:19:16.269Z,6.27
2023-04-07T01:21:51.599Z,6.10
2023-04-07T01:24:34.863Z,6.87
2023-04-07T01:27:16.615Z,6.23
2023-04-07T01:29:48.260Z,6.07
2023-04-07T01:32:17.928Z,6.27
2023-04-07T01:34:45.879Z,6.90
2023-04-07T01:37:14.798Z,6.67
2023-04-07T01:39:41.625Z,6.50
2023-04-07T01:42:09.350Z,6.10
2023-04-07T01:44:36.899Z,6.37
2023-04-07T01:47:04.351Z,6.70
2023-04-07T01:49:32.162Z,6.60
2023-04-07T01:51:59.612Z,6.60
2023-04-07T01:54:27.941Z,6.73
2023-04-07T01:56:54.576Z,6.93
2023-04-07T01:59:21.695Z,6.67
2023-04-07T02:01:48.766Z,6.40
2023-04-07T02:04:24.744Z,6.50
2023-04-07T02:07:03.124Z,7.07
2023-04-07T02:09:40.989Z,6.60
2023-04-07T02:12:09.826Z,6.90
2023-04-07T02:14:41.517Z,6.50
2023-04-07T02:17:12.075Z,6.77
2023-04-07T02:19:39.108Z,6.70
2023-04-07T02:22:09.064Z,6.93
2023-04-07T02:24:35.780Z,6.90
2023-04-07T02:27:02.652Z,6.73
2023-04-07T02:29:29.401Z,5.87
2023-04-07T02:31:56.406Z,7.03
2023-04-07T02:34:23.124Z,7.70
2023-04-07T02:36:49.822Z,7.07
2023-04-07T02:39:16.495Z,6.70
2023-04-07T02:41:43.188Z,7.03
2023-04-07T02:44:09.822Z,6.50
2023-04-07T02:46:38.758Z,7.40
2023-04-07T02:49:05.447Z,7.30
2023-04-07T02:51:32.452Z,6.77
2023-04-07T02:53:59.172Z,7.07
2023-04-07T02:56:25.874Z,7.67
2023-04-07T02:58:52.620Z,6.97
2023-04-07T03:01:20.048Z,7.13
2023-04-07T03:03:47.970Z,7.57
2023-04-07T03:06:21.555Z,7.30
2023-04-07T03:09:06.737Z,7.70
2023-04-07T03:11:33.568Z,7.23
2023-04-07T03:14:01.095Z,7.63
2023-04-07T03:16:31.923Z,8.20
2023-04-07T03:19:06.610Z,8.27
2023-04-07T03:21:38.596Z,7.93
2023-04-07T03:24:06.770Z,8.07
2023-04-07T03:26:33.503Z,8.23
2023-04-07T03:29:01.415Z,8.13
2023-04-07T03:31:30.501Z,8.30
2023-04-07T03:33:57.338Z,7.67
2023-04-07T03:36:24.784Z,7.93
2023-04-07T03:38:51.566Z,8.00
2023-04-07T03:41:18.885Z,7.70
2023-04-07T03:43:47.244Z,7.77
2023-04-07T03:46:14.860Z,7.57
2023-04-07T03:48:43.236Z,7.43
2023-04-07T03:51:11.128Z,7.97
2023-04-07T03:53:38.420Z,7.43
2023-04-07T03:56:17.440Z,8.27
2023-04-07T03:58:49.360Z,8.20
2023-04-07T04:01:26.242Z,8.23
2023-04-07T04:03:54.552Z,7.67
2023-04-07T04:06:24.363Z,7.97
2023-04-07T04:08:53.731Z,8.00
2023-04-07T04:11:22.252Z,7.77
2023-04-07T04:13:56.954Z,7.73
2023-04-07T04:16:23.880Z,7.83
2023-04-07T04:18:52.550Z,7.60
2023-04-07T04:21:20.207Z,7.60
2023-04-07T04:23:47.129Z,7.23
2023-04-07T04:26:17.005Z,7.40
2023-04-07T04:28:45.330Z,7.50
2023-04-07T04:31:13.387Z,7.80
2023-04-07T04:33:43.413Z,7.97
2023-04-07T04:36:10.585Z,7.63
2023-04-07T04:38:37.351Z,7.10
2023-04-07T04:41:09.838Z,7.83
2023-04-07T04:43:37.904Z,7.20
2023-04-07T04:46:05.787Z,7.93
2023-04-07T04:48:37.444Z,7.60
2023-04-07T04:51:06.028Z,7.27
2023-04-07T04:53:32.806Z,7.43
2023-04-07T04:56:01.809Z,7.30
2023-04-07T04:58:48.708Z,7.77
2023-04-07T05:01:25.282Z,7.27
2023-04-07T05:03:58.451Z,7.10
2023-04-07T05:06:29.622Z,7.83
2023-04-07T05:09:00.830Z,7.67
2023-04-07T05:11:33.468Z,9.23
2023-04-07T05:14:00.402Z,7.83
2023-04-07T05:16:27.174Z,7.73
2023-04-07T05:18:54.664Z,7.47
2023-04-07T05:21:23.589Z,7.13
2023-04-07T05:23:53.551Z,7.10
2023-04-07T05:26:22.545Z,8.03
2023-04-07T05:28:50.895Z,7.60
2023-04-07T05:31:21.324Z,6.77
2023-04-07T05:33:51.014Z,7.13
2023-04-07T05:36:19.565Z,7.40
2023-04-07T05:38:46.527Z,7.40
2023-04-07T05:41:17.138Z,7.37
2023-04-07T05:43:43.860Z,7.30
2023-04-07T05:46:11.004Z,7.30
2023-04-07T05:48:49.522Z,7.17
2023-04-07T05:51:19.152Z,7.13
2023-04-07T05:53:48.156Z,7.33
2023-04-07T05:56:16.695Z,7.30
2023-04-07T05:58:47.574Z,7.27
2023-04-07T06:01:15.920Z,6.93
2023-04-07T06:03:43.155Z,6.67
2023-04-07T06:06:15.212Z,6.73
2023-04-07T06:08:42.338Z,7.10
2023-04-07T06:11:09.020Z,7.40
2023-04-07T06:13:35.994Z,7.13
2023-04-07T06:16:03.125Z,6.77
2023-04-07T06:18:30.485Z,6.90
2023-04-07T06:20:57.183Z,6.97
2023-04-07T06:23:25.748Z,7.30
2023-04-07T06:25:53.361Z,7.10
2023-04-07T06:28:20.410Z,6.90
2023-04-07T06:30:48.353Z,6.90
2023-04-07T06:33:15.863Z,6.80
2023-04-07T06:35:42.703Z,7.33
2023-04-07T06:38:11.357Z,6.93
2023-04-07T06:40:38.025Z,6.70
2023-04-07T06:43:04.679Z,6.97
2023-04-07T06:45:40.500Z,6.87
2023-04-07T06:48:07.398Z,7.07
2023-04-07T06:50:34.065Z,6.37
2023-04-07T06:53:01.021Z,6.30
2023-04-07T06:55:27.713Z,6.50
2023-04-07T06:57:54.435Z,6.27
2023-04-07T07:00:23.191Z,6.63
2023-04-07T07:02:50.844Z,6.50
2023-04-07T07:05:19.924Z,6.53
2023-04-07T07:07:46.576Z,6.67
2023-04-07T07:10:13.319Z,6.43
2023-04-07T07:12:40.053Z,6.63
2023-04-07T07:15:07.504Z,6.73
2023-04-07T07:17:37.027Z,6.37
2023-04-07T07:20:04.016Z,6.07
2023-04-07T07:22:30.838Z,6.57
2023-04-07T07:24:57.466Z,6.43
2023-04-07T07:27:24.114Z,6.00
2023-04-07T07:29:50.861Z,6.23
2023-04-07T07:32:17.546Z,6.50
2023-04-07T07:34:44.196Z,6.50
2023-04-07T07:37:12.377Z,6.77
2023-04-07T07:39:39.340Z,6.33
2023-04-07T07:42:06.007Z,6.33
2023-04-07T07:44:32.737Z,6.70
2023-04-07T07:46:59.467Z,6.33
2023-04-07T07:49:26.134Z,6.17
2023-04-07T07:51:53.110Z,6.50
2023-04-07T07:54:19.692Z,6.77
2023-04-07T07:56:46.503Z,6.43
2023-04-07T07:59:13.180Z,6.87
2023-04-07T08:01:39.972Z,6.63
2023-04-07T08:04:06.822Z,6.53
2023-04-07T08:06:33.533Z,7.10
2023-04-07T08:09:00.288Z,6.67
2023-04-07T08:11:27.037Z,6.83
2023-04-07T08:13:54.347Z,6.67
2023-04-07T08:16:22.291Z,6.70
2023-04-07T08:18:49.751Z,7.13
2023-04-07T08:21:18.913Z,6.90
2023-04-07T08:23:46.415Z,6.60
2023-04-07T08:26:13.251Z,7.37
2023-04-07T08:28:39.901Z,6.83
2023-04-07T08:31:07.604Z,6.73
2023-04-07T08:33:34.333Z,6.60
2023-04-07T08:36:01.232Z,7.00
2023-04-07T08:38:28.116Z,6.90
2023-04-07T08:41:04.596Z,6.60
2023-04-07T08:43:32.108Z,6.97
2023-04-07T08:45:59.230Z,6.77
2023-04-07T08:48:33.793Z,7.20
2023-04-07T08:51:04.855Z,7.13
2023-04-07T08:53:52.204Z,7.03
2023-04-07T08:56:19.118Z,7.10
2023-04-07T08:58:48.172Z,10.73
2023-04-07T09:01:17.291Z,14.47
2023-04-07T09:03:45.112Z,7.70
2023-04-07T09:06:11.971Z,6.93
2023-04-07T09:08:38.604Z,7.77
2023-04-07T09:11:05.479Z,7.70
2023-04-07T09:13:32.201Z,7.10
2023-04-07T09:16:01.995Z,7.20
2023-04-07T09:18:28.990Z,7.30
2023-04-07T09:20:59.538Z,7.60
2023-04-07T09:23:34.788Z,8.20
2023-04-07T09:26:18.240Z,8.30
2023-04-07T09:28:46.777Z,7.13
2023-04-07T09:31:13.483Z,7.73
2023-04-07T09:33:40.275Z,7.37
2023-04-07T09:36:07.494Z,10.57
2023-04-07T09:38:35.670Z,7.63
2023-04-07T09:41:08.253Z,7.20
2023-04-07T09:43:37.951Z,10.23
2023-04-07T09:46:08.625Z,10.73
2023-04-07T09:48:35.407Z,8.47
2023-04-07T09:51:16.271Z,8.20
2023-04-07T09:53:51.550Z,7.50
2023-04-07T09:56:22.345Z,7.23
2023-04-07T09:58:53.089Z,8.60
2023-04-07T10:01:21.984Z,7.47
2023-04-07T10:03:52.206Z,7.57
2023-04-07T10:06:20.688Z,7.77
2023-04-07T10:08:49.816Z,7.50
2023-04-07T10:11:16.682Z,7.43
2023-04-07T10:13:43.687Z,7.47
2023-04-07T10:16:10.675Z,7.83
2023-04-07T10:18:38.602Z,8.97
2023-04-07T10:21:08.144Z,7.67
2023-04-07T10:23:44.983Z,8.17
2023-04-07T10:26:12.491Z,7.80
2023-04-07T10:28:40.602Z,10.47
2023-04-07T10:31:08.218Z,7.70
2023-04-07T10:33:49.693Z,7.57
2023-04-07T10:36:18.601Z,8.07
2023-04-07T10:39:08.233Z,7.97
2023-04-07T10:41:36.561Z,7.67
2023-04-07T10:44:04.062Z,8.47
2023-04-07T10:46:46.051Z,8.17
2023-04-07T10:49:14.046Z,7.90
2023-04-07T10:51:41.372Z,8.30
2023-04-07T10:54:22.737Z,8.23
2023-04-07T10:57:10.935Z,8.10
2023-04-07T10:59:39.982Z,8.63
2023-04-07T11:02:12.801Z,8.60
2023-04-07T11:04:42.478Z,8.20
2023-04-07T11:07:09.928Z,7.80
2023-04-07T11:09:36.875Z,8.67
2023-04-07T11:12:04.762Z,8.07
2023-04-07T11:14:32.804Z,8.23
2023-04-07T11:17:01.516Z,8.20
2023-04-07T11:19:28.487Z,8.50
2023-04-07T11:22:28.800Z,7.90
2023-04-07T11:24:57.227Z,7.97
2023-04-07T11:27:24.053Z,7.70
2023-04-07T11:29:50.780Z,7.97
2023-04-07T11:32:24.266Z,8.57
2023-04-07T11:34:52.523Z,8.07
2023-04-07T11:37:28.857Z,8.23
2023-04-07T11:39:57.382Z,8.17
2023-04-07T11:42:39.997Z,8.57
2023-04-07T11:45:16.852Z,8.43
2023-04-07T11:47:43.596Z,8.37
2023-04-07T11:50:11.666Z,8.33
2023-04-07T11:52:50.126Z,8.00
2023-04-07T11:55:22.463Z,8.80
2023-04-07T11:57:51.208Z,8.53
2023-04-07T12:00:20.421Z,8.50
2023-04-07T12:02:47.412Z,10.63
2023-04-07T12:05:15.572Z,12.83
2023-04-07T12:07:53.288Z,15.53
2023-04-07T12:10:26.330Z,8.70
2023-04-07T12:12:53.540Z,8.97
2023-04-07T12:15:21.711Z,7.90
2023-04-07T12:17:49.317Z,9.40
2023-04-07T12:20:16.502Z,9.20
2023-04-07T12:22:43.253Z,9.40
2023-04-07T12:25:09.971Z,9.33
2023-04-07T12:27:43.456Z,9.03
2023-04-07T12:30:13.908Z,9.37
2023-04-07T12:32:40.943Z,8.13
2023-04-07T12:35:07.823Z,9.20
2023-04-07T12:37:34.505Z,8.47
2023-04-07T12:40:01.192Z,8.80
2023-04-07T12:42:28.174Z,9.37
2023-04-07T12:44:54.955Z,8.90
2023-04-07T12:47:22.136Z,17.57
2023-04-07T12:49:51.145Z,10.17
2023-04-07T12:52:17.827Z,11.03
2023-04-07T12:54:45.454Z,9.40
2023-04-07T12:57:12.454Z,9.10
2023-04-07T12:59:39.104Z,8.77
2023-04-07T13:02:06.216Z,9.77
2023-04-07T13:04:33.089Z,8.90
2023-04-07T13:07:01.038Z,11.03
2023-04-07T13:09:27.709Z,8.47
2023-04-07T13:11:54.351Z,8.70
2023-04-07T13:14:20.972Z,8.77
2023-04-07T13:16:47.723Z,8.90
2023-04-07T13:19:14.436Z,8.43
2023-04-07T13:21:46.761Z,8.70
2023-04-07T13:24:14.538Z,9.20
2023-04-07T13:26:41.174Z,10.23
2023-04-07T13:29:07.875Z,9.10
2023-04-07T13:31:34.480Z,9.20
2023-04-07T13:34:01.081Z,9.20
2023-04-07T13:36:28.283Z,8.83
2023-04-07T13:38:54.974Z,8.80
2023-04-07T13:41:21.867Z,9.60
2023-04-07T13:43:49.157Z,9.10
2023-04-07T13:46:27.774Z,9.90
2023-04-07T13:48:56.356Z,9.13
2023-04-07T13:51:23.188Z,9.40
2023-04-07T13:53:50.308Z,10.37
2023-04-07T13:56:17.232Z,9.73
2023-04-07T13:58:44.009Z,9.47
2023-04-07T14:01:11.407Z,10.03
2023-04-07T14:03:38.693Z,9.93
2023-04-07T14:06:05.666Z,9.73
2023-04-07T14:08:32.348Z,10.30
2023-04-07T14:10:59.022Z,9.70
2023-04-07T14:13:25.817Z,9.83
2023-04-07T14:15:54.004Z,10.03
2023-04-07T14:18:20.950Z,9.27
2023-04-07T14:20:47.757Z,9.60
2023-04-07T14:23:16.675Z,9.93
2023-04-07T14:25:47.711Z,10.03
2023-04-07T14:28:14.370Z,10.00
2023-04-07T14:30:41.285Z,10.57
2023-04-07T14:33:08.244Z,9.90
2023-04-07T14:35:37.533Z,10.63
2023-04-07T14:38:04.310Z,10.20
2023-04-07T14:40:31.606Z,10.10
2023-04-07T14:45:29.975Z,10.37
2023-04-07T14:47:56.773Z,10.87
2023-04-07T14:50:23.907Z,10.50
2023-04-07T14:52:50.850Z,10.00
2023-04-07T14:55:18.348Z,9.67
2023-04-07T14:57:45.113Z,10.50
2023-04-07T15:00:13.364Z,9.97
2023-04-07T15:02:40.515Z,10.67
2023-04-07T15:05:07.962Z,9.93
2023-04-07T15:07:34.964Z,10.03
2023-04-07T15:10:03.740Z,10.57
2023-04-07T15:12:31.582Z,9.90
2023-04-07T15:14:58.188Z,10.73
2023-04-07T15:17:33.326Z,10.20
2023-04-07T15:20:07.592Z,10.60
2023-04-07T15:22:34.925Z,10.40
2023-04-07T15:25:03.379Z,10.10
2023-04-07T15:27:30.045Z,11.27
2023-04-07T15:29:56.812Z,10.60
2023-04-07T15:32:23.480Z,10.27
2023-04-07T15:34:50.230Z,9.97
2023-04-07T15:37:18.838Z,10.17
2023-04-07T15:39:45.498Z,10.27
2023-04-07T15:42:12.696Z,10.47
2023-04-07T15:44:40.311Z,10.57
2023-04-07T15:47:07.416Z,10.63
2023-04-07T15:49:34.558Z,10.33
2023-04-07T15:52:03.991Z,10.33
2023-04-07T15:54:31.280Z,10.47
2023-04-07T15:56:58.034Z,11.10
2023-04-07T15:59:24.667Z,10.77
2023-04-07T16:01:51.515Z,10.30
2023-04-07T16:04:19.437Z,10.23
2023-04-07T16:06:46.116Z,10.77
2023-04-07T16:09:12.868Z,9.90
2023-04-07T16:11:39.506Z,9.13
2023-04-07T16:14:08.369Z,9.93
2023-04-07T16:16:37.146Z,10.17
2023-04-07T16:19:03.907Z,10.00
2023-04-07T16:21:31.447Z,11.10
2023-04-07T16:23:58.102Z,11.00
2023-04-07T16:26:24.813Z,10.07
2023-04-07T16:28:51.460Z,20.97
2023-04-07T16:31:18.157Z,10.00
2023-04-07T16:33:44.845Z,9.47
2023-04-07T16:36:11.477Z,9.27
2023-04-07T16:38:38.147Z,8.30
2023-04-07T16:41:07.501Z,7.93
2023-04-07T16:43:34.116Z,8.23
2023-04-07T16:46:00.844Z,9.20
2023-04-07T16:48:27.562Z,12.10
2023-04-07T16:50:54.204Z,9.17
2023-04-07T16:53:21.519Z,8.70
2023-04-07T16:55:51.191Z,8.33
2023-04-07T16:58:19.607Z,8.40
2023-04-07T17:00:46.471Z,9.10
2023-04-07T17:03:16.723Z,9.00
2023-04-07T17:05:44.721Z,9.23
2023-04-07T17:08:11.791Z,8.93
2023-04-07T17:10:38.508Z,8.77
2023-04-07T17:13:05.182Z,8.90
2023-04-07T17:15:32.029Z,9.73
2023-04-07T17:17:58.860Z,36.83
2023-04-07T17:20:25.605Z,76.13
2023-04-07T17:22:52.795Z,54.77
2023-04-07T17:25:19.457Z,13.60
2023-04-07T17:27:48.133Z,10.00
2023-04-07T17:30:15.010Z,10.67
2023-04-07T17:32:42.471Z,11.10
2023-04-07T17:35:09.330Z,12.27
2023-04-07T17:37:36.100Z,13.33
2023-04-07T17:40:02.772Z,13.00
2023-04-07T17:42:29.435Z,10.83
2023-04-07T17:44:56.853Z,10.47
2023-04-07T17:47:24.360Z,10.10
2023-04-07T17:49:51.069Z,10.20
2023-04-07T17:52:17.768Z,9.87
2023-04-07T17:54:44.441Z,11.43
2023-04-07T17:57:14.223Z,14.57
2023-04-07T17:59:40.959Z,12.50
2023-04-07T18:02:11.059Z,11.17
2023-04-07T18:04:38.045Z,11.93
2023-04-07T18:07:05.016Z,12.20
2023-04-07T18:09:32.564Z,12.10
2023-04-07T18:12:01.286Z,11.90
2023-04-07T18:14:28.595Z,11.83
2023-04-07T18:16:55.942Z,10.80
2023-04-07T18:19:23.092Z,10.93
2023-04-07T18:21:52.882Z,13.40
2023-04-07T18:24:20.714Z,13.43
2023-04-07T18:26:47.833Z,14.80
2023-04-07T18:29:14.923Z,14.13
2023-04-07T18:31:45.198Z,13.80
2023-04-07T18:34:12.276Z,17.43
2023-04-07T18:36:41.111Z,17.00
2023-04-07T18:39:08.002Z,17.87
2023-04-07T18:41:35.011Z,17.37
2023-04-07T18:44:01.678Z,15.03
2023-04-07T18:46:28.498Z,14.03
2023-04-07T18:48:55.646Z,14.33
2023-04-07T18:51:22.543Z,15.57
2023-04-07T18:53:49.495Z,16.10
2023-04-07T18:56:16.404Z,13.50
2023-04-07T18:58:46.130Z,14.00
2023-04-07T19:01:15.805Z,14.87
2023-04-07T19:03:42.684Z,14.53
2023-04-07T19:06:09.726Z,13.67
2023-04-07T19:08:36.802Z,13.37
2023-04-07T19:11:03.888Z,13.10
2023-04-07T19:13:30.751Z,12.80
2023-04-07T19:15:57.459Z,12.30
2023-04-07T19:18:25.197Z,14.03
2023-04-07T19:20:51.950Z,16.23
2023-04-07T19:23:18.602Z,15.47
2023-04-07T19:25:46.002Z,15.70
2023-04-07T19:28:13.120Z,15.53
2023-04-07T19:30:39.799Z,16.27
2023-04-07T19:33:06.739Z,16.30
2023-04-07T19:35:33.916Z,14.47
2023-04-07T19:38:00.705Z,13.23
2023-04-07T19:40:27.526Z,14.13
2023-04-07T19:42:56.232Z,13.57
2023-04-07T19:45:22.985Z,13.37
2023-04-07T19:47:49.803Z,13.40
2023-04-07T19:50:16.587Z,13.27
2023-04-07T19:52:45.195Z,13.80
2023-04-07T19:55:14.071Z,13.63
2023-04-07T19:57:41.174Z,13.57
2023-04-07T20:00:09.294Z,13.63
2023-04-07T20:02:36.966Z,13.57
2023-04-07T20:05:04.312Z,14.00
2023-04-07T20:07:32.008Z,14.23
2023-04-07T20:09:58.793Z,14.60
2023-04-07T20:12:25.675Z,14.17
2023-04-07T20:14:52.364Z,14.97
2023-04-07T20:17:19.829Z,14.53
2023-04-07T20:19:47.845Z,13.73
2023-04-07T20:22:14.632Z,13.47
2023-04-07T20:24:41.299Z,13.37
2023-04-07T20:27:08.091Z,14.30
2023-04-07T20:29:34.811Z,12.87
2023-04-07T20:32:01.506Z,12.87
2023-04-07T20:34:31.122Z,13.13
2023-04-07T20:36:58.113Z,12.77
2023-04-07T20:39:24.797Z,11.70
2023-04-07T20:41:51.863Z,11.77
2023-04-07T20:44:18.530Z,12.37
2023-04-07T20:46:46.881Z,11.50
2023-04-07T20:49:13.583Z,11.57
2023-04-07T20:51:40.335Z,11.47
2023-04-07T20:54:06.986Z,12.93
2023-04-07T20:56:33.688Z,12.50
2023-04-07T20:59:00.348Z,12.83
2023-04-07T21:01:27.009Z,12.77
2023-04-07T21:03:54.840Z,12.70
2023-04-07T21:06:21.605Z,12.13
2023-04-07T21:08:48.525Z,12.43
2023-04-07T21:11:15.556Z,12.33
2023-04-07T21:13:42.258Z,12.00
2023-04-07T21:16:09.199Z,11.73
2023-04-07T21:18:36.125Z,11.87
2023-04-07T21:21:02.995Z,12.47
2023-04-07T21:23:31.343Z,12.23
2023-04-07T21:26:02.800Z,15.60
2023-04-07T21:28:29.561Z,14.00
2023-04-07T21:30:56.903Z,15.73
2023-04-07T21:33:24.609Z,12.93
2023-04-07T21:35:52.803Z,13.20
2023-04-07T21:38:19.580Z,12.50
2023-04-07T21:40:46.309Z,12.57
2023-04-07T21:43:13.274Z,12.90
2023-04-07T21:45:39.921Z,11.93
2023-04-07T21:48:07.094Z,12.00
2023-04-07T21:50:34.348Z,12.20
2023-04-07T21:53:01.113Z,12.07
2023-04-07T21:55:27.896Z,12.20
2023-04-07T21:57:54.832Z,12.10
2023-04-07T22:00:21.970Z,12.37
2023-04-07T22:02:49.614Z,11.80
2023-04-07T22:05:16.674Z,11.70
2023-04-07T22:07:45.376Z,12.70
2023-04-07T22:10:12.709Z,12.67
2023-04-07T22:12:39.504Z,12.23
2023-04-07T22:15:07.106Z,12.77
2023-04-07T22:17:33.918Z,13.00
2023-04-07T22:20:00.722Z,13.57
2023-04-07T22:22:27.391Z,12.83
2023-04-07T22:24:54.062Z,14.07
2023-04-07T22:27:20.913Z,13.63
2023-04-07T22:29:47.532Z,15.00
2023-04-07T22:32:14.294Z,14.00
2023-04-07T22:34:40.986Z,13.20
2023-04-07T22:37:07.739Z,14.30
2023-04-07T22:39:34.383Z,13.47
2023-04-07T22:42:02.718Z,13.27
2023-04-07T22:44:29.402Z,12.57
2023-04-07T22:46:56.486Z,13.80
2023-04-07T22:49:23.442Z,13.87
2023-04-07T22:51:50.733Z,17.30
2023-04-07T22:54:17.894Z,21.00
2023-04-07T22:56:44.950Z,31.03
2023-04-07T22:59:11.676Z,29.53
2023-04-07T23:01:38.612Z,20.40
2023-04-07T23:04:05.408Z,18.20
2023-04-07T23:06:32.279Z,17.37
2023-04-07T23:08:59.232Z,17.03
2023-04-07T23:11:25.899Z,16.17
2023-04-07T23:13:52.682Z,15.93
2023-04-07T23:16:19.330Z,23.00
2023-04-07T23:18:46.075Z,20.97
2023-04-07T23:21:13.512Z,16.47
2023-04-07T23:23:40.199Z,15.30
2023-04-07T23:26:09.259Z,16.57
2023-04-07T23:28:35.982Z,17.30
2023-04-07T23:31:02.761Z,16.80
2023-04-07T23:33:31.702Z,18.10
2023-04-07T23:35:58.992Z,17.43
2023-04-07T23:38:26.046Z,16.97
2023-04-07T23:40:53.275Z,17.37
2023-04-07T23:43:20.237Z,20.53
2023-04-07T23:45:46.989Z,18.80
2023-04-07T23:48:13.727Z,18.13
2023-04-07T23:50:40.781Z,17.23
2023-04-07T23:53:07.515Z,17.07
2023-04-07T23:55:34.332Z,18.23
2023-04-07T23:58:01.173Z,19.27
